createdAt,value
2017-12-05T00:00:52.750Z,23.33
2017-12-05T00:03:28.866Z,21.43
2017-12-05T00:06:00.325Z,22.52
2017-12-05T00:08:32.642Z,21.83
2017-12-05T00:11:02.469Z,20.83
2017-12-05T00:13:36.374Z,21.60
2017-12-05T00:16:07.313Z,22.47
2017-12-05T00:18:39.802Z,22.17
2017-12-05T00:21:13.255Z,22.40
2017-12-05T00:23:58.528Z,22.10
2017-12-05T00:26:32.934Z,21.10
2017-12-05T00:29:06.412Z,20.03
2017-12-05T00:31:40.254Z,21.57
2017-12-05T00:34:12.381Z,20.47
2017-12-05T00:36:44.630Z,20.27
2017-12-05T00:39:14.706Z,20.27
2017-12-05T00:41:46.322Z,20.80
2017-12-05T00:44:18.359Z,19.30
2017-12-05T00:46:53.557Z,21.70
2017-12-05T00:49:23.431Z,20.87
2017-12-05T00:51:57.593Z,20.73
2017-12-05T00:54:35.472Z,21.08
2017-12-05T00:57:07.371Z,21.23
2017-12-05T00:59:38.780Z,20.63
2017-12-05T01:02:09.433Z,20.10
2017-12-05T01:04:43.256Z,20.87
2017-12-05T01:07:13.859Z,18.90
2017-12-05T01:09:49.367Z,20.20
2017-12-05T01:12:21.401Z,19.50
2017-12-05T01:14:59.443Z,20.52
2017-12-05T01:17:31.949Z,19.60
2017-12-05T01:20:07.701Z,19.15
2017-12-05T01:22:37.440Z,18.83
2017-12-05T01:25:14.134Z,19.47
2017-12-05T01:27:47.775Z,19.08
2017-12-05T01:30:18.043Z,19.50
2017-12-05T01:32:49.594Z,20.20
2017-12-05T01:35:26.467Z,18.07
2017-12-05T01:37:59.390Z,19.48
2017-12-05T01:40:31.610Z,17.83
2017-12-05T01:43:03.309Z,18.20
2017-12-05T01:45:42.170Z,17.87
2017-12-05T01:48:16.502Z,19.10
2017-12-05T01:50:48.277Z,18.53
2017-12-05T01:53:22.319Z,18.58
2017-12-05T01:55:53.611Z,17.87
2017-12-05T01:58:24.732Z,17.50
2017-12-05T02:00:55.259Z,18.20
2017-12-05T02:03:28.392Z,19.53
2017-12-05T02:06:09.200Z,18.10
2017-12-05T02:08:41.788Z,17.50
2017-12-05T02:11:14.660Z,17.36
2017-12-05T02:13:46.156Z,16.77
2017-12-05T02:16:18.107Z,18.40
2017-12-05T02:18:50.428Z,17.70
2017-12-05T02:21:28.810Z,17.33
2017-12-05T02:23:59.619Z,18.30
2017-12-05T02:26:32.794Z,18.40
2017-12-05T02:29:04.469Z,16.87
2017-12-05T02:31:37.541Z,17.13
2017-12-05T02:34:09.653Z,17.83
2017-12-05T02:36:41.245Z,17.13
2017-12-05T02:39:12.391Z,17.67
2017-12-05T02:41:45.777Z,17.20
2017-12-05T02:44:16.930Z,17.60
2017-12-05T02:46:54.581Z,17.35
2017-12-05T02:49:28.006Z,16.08
2017-12-05T02:52:00.834Z,16.80
2017-12-05T02:54:33.381Z,17.60
2017-12-05T02:57:06.861Z,17.40
2017-12-05T02:59:39.328Z,16.53
2017-12-05T03:02:14.329Z,16.77
2017-12-05T03:04:46.120Z,16.33
2017-12-05T03:07:18.979Z,16.87
2017-12-05T03:09:51.652Z,15.02
2017-12-05T03:12:25.361Z,15.63
2017-12-05T03:14:56.456Z,16.27
2017-12-05T03:17:28.499Z,15.90
2017-12-05T03:19:58.790Z,16.62
2017-12-05T03:22:31.337Z,16.42
2017-12-05T03:25:02.110Z,16.63
2017-12-05T03:27:33.605Z,16.10
2017-12-05T03:30:05.920Z,16.43
2017-12-05T03:32:39.905Z,15.50
2017-12-05T03:35:22.370Z,16.07
2017-12-05T03:37:57.379Z,15.37
2017-12-05T03:40:32.509Z,16.25
2017-12-05T03:43:04.268Z,15.53
2017-12-05T03:45:44.969Z,15.90
2017-12-05T03:48:17.820Z,16.27
2017-12-05T03:50:49.580Z,15.15
2017-12-05T03:53:22.680Z,16.13
2017-12-05T03:55:57.790Z,16.73
2017-12-05T03:58:29.248Z,15.30
2017-12-05T04:01:02.152Z,15.73
2017-12-05T04:03:35.353Z,14.57
2017-12-05T04:06:07.160Z,15.90
2017-12-05T04:08:36.684Z,15.10
2017-12-05T04:11:06.231Z,14.55
2017-12-05T04:13:37.268Z,15.47
2017-12-05T04:16:07.378Z,15.27
2017-12-05T04:18:39.968Z,15.00
2017-12-05T04:21:10.351Z,15.50
2017-12-05T04:23:42.230Z,16.23
2017-12-05T04:26:20.451Z,15.30
2017-12-05T04:28:50.361Z,15.93
2017-12-05T04:31:20.469Z,15.13
2017-12-05T04:33:50.351Z,16.02
2017-12-05T04:36:21.095Z,15.35
2017-12-05T04:38:52.532Z,16.77
2017-12-05T04:41:24.708Z,16.67
2017-12-05T04:43:54.707Z,15.80
2017-12-05T04:46:26.469Z,16.03
2017-12-05T04:48:56.227Z,16.50
2017-12-05T04:51:26.489Z,17.07
2017-12-05T04:53:57.431Z,16.97
2017-12-05T04:56:27.393Z,16.95
2017-12-05T04:58:57.284Z,17.00
2017-12-05T05:01:27.076Z,16.98
2017-12-05T05:03:56.636Z,16.40
2017-12-05T05:06:30.368Z,16.08
2017-12-05T05:09:00.339Z,15.90
2017-12-05T05:11:31.904Z,15.93
2017-12-05T05:14:02.728Z,15.65
2017-12-05T05:16:34.458Z,14.73
2017-12-05T05:19:05.294Z,16.43
2017-12-05T05:21:35.749Z,15.73
2017-12-05T05:24:24.312Z,16.20
2017-12-05T05:26:54.203Z,16.35
2017-12-05T05:29:25.441Z,15.52
2017-12-05T05:32:01.626Z,16.40
2017-12-05T05:34:33.090Z,15.02
2017-12-05T05:37:23.195Z,15.22
2017-12-05T05:40:02.862Z,16.02
2017-12-05T05:42:36.289Z,14.87
2017-12-05T05:45:10.558Z,15.17
2017-12-05T05:47:41.344Z,16.57
2017-12-05T05:50:14.017Z,15.87
2017-12-05T05:52:46.465Z,15.67
2017-12-05T05:55:23.375Z,15.93
2017-12-05T05:57:54.861Z,14.80
2017-12-05T06:00:29.176Z,15.88
2017-12-05T06:03:04.350Z,15.10
2017-12-05T06:05:36.260Z,15.27
2017-12-05T06:08:08.684Z,14.93
2017-12-05T06:10:39.982Z,14.55
2017-12-05T06:13:11.714Z,14.73
2017-12-05T06:15:59.175Z,13.10
2017-12-05T06:18:52.648Z,14.90
2017-12-05T06:21:29.386Z,13.80
2017-12-05T06:24:01.637Z,12.68
2017-12-05T06:26:34.804Z,13.07
2017-12-05T06:29:06.760Z,12.87
2017-12-05T06:31:39.315Z,12.80
2017-12-05T06:34:09.107Z,13.63
2017-12-05T06:36:41.779Z,13.45
2017-12-05T06:39:12.037Z,13.63
2017-12-05T06:41:44.413Z,13.50
2017-12-05T06:44:16.846Z,12.80
2017-12-05T06:46:48.229Z,14.40
2017-12-05T06:49:18.684Z,13.23
2017-12-05T06:51:48.116Z,12.77
2017-12-05T06:54:20.180Z,13.60
2017-12-05T06:56:50.275Z,13.38
2017-12-05T06:59:22.287Z,13.62
2017-12-05T07:01:53.174Z,13.60
2017-12-05T07:04:24.132Z,14.07
2017-12-05T07:06:54.456Z,12.53
2017-12-05T07:09:26.072Z,13.52
2017-12-05T07:11:57.211Z,13.23
2017-12-05T07:14:27.446Z,12.93
2017-12-05T07:16:58.064Z,13.27
2017-12-05T07:19:28.671Z,12.77
2017-12-05T07:21:59.665Z,10.40
2017-12-05T07:24:30.375Z,11.55
2017-12-05T07:27:00.558Z,10.57
2017-12-05T07:29:31.395Z,10.07
2017-12-05T07:32:02.283Z,10.15
2017-12-05T07:34:35.387Z,10.57
2017-12-05T07:37:07.065Z,10.10
2017-12-05T07:39:37.242Z,9.40
2017-12-05T07:42:11.201Z,9.80
2017-12-05T07:44:46.038Z,11.57
2017-12-05T07:47:16.214Z,12.53
2017-12-05T07:49:47.099Z,15.57
2017-12-05T07:52:17.577Z,21.97
2017-12-05T07:54:51.692Z,17.12
2017-12-05T07:57:21.780Z,13.53
2017-12-05T07:59:55.276Z,13.63
2017-12-05T08:02:26.456Z,15.57
2017-12-05T08:04:56.268Z,14.77
2017-12-05T08:07:30.542Z,19.50
2017-12-05T08:10:11.277Z,15.97
2017-12-05T08:12:42.636Z,12.57
2017-12-05T08:15:14.287Z,14.13
2017-12-05T08:17:46.575Z,12.67
2017-12-05T08:20:17.317Z,11.47
2017-12-05T08:22:47.891Z,11.83
2017-12-05T08:25:18.127Z,10.67
2017-12-05T08:27:48.472Z,11.23
2017-12-05T08:30:19.418Z,9.93
2017-12-05T08:32:49.425Z,9.87
2017-12-05T08:35:19.090Z,9.03
2017-12-05T08:37:50.380Z,9.38
2017-12-05T08:40:21.700Z,11.07
2017-12-05T08:42:52.480Z,10.95
2017-12-05T08:45:22.632Z,11.40
2017-12-05T08:47:57.776Z,10.63
2017-12-05T08:50:28.200Z,11.00
2017-12-05T08:53:01.174Z,10.65
2017-12-05T08:55:31.382Z,11.18
2017-12-05T08:58:01.047Z,11.25
2017-12-05T09:00:31.111Z,10.50
2017-12-05T09:03:00.976Z,9.77
2017-12-05T09:05:34.681Z,9.90
2017-12-05T09:08:04.643Z,10.23
2017-12-05T09:10:36.204Z,9.10
2017-12-05T09:13:07.155Z,9.80
2017-12-05T09:15:37.205Z,9.73
2017-12-05T09:18:08.240Z,10.37
2017-12-05T09:20:38.455Z,10.13
2017-12-05T09:23:09.685Z,9.23
2017-12-05T09:25:40.244Z,9.37
2017-12-05T09:28:10.314Z,9.23
2017-12-05T09:30:46.474Z,8.80
2017-12-05T09:33:16.375Z,8.60
2017-12-05T09:35:46.086Z,8.30
2017-12-05T09:38:17.625Z,7.25
2017-12-05T09:40:48.416Z,7.97
2017-12-05T09:43:19.761Z,8.50
2017-12-05T09:45:51.080Z,8.47
2017-12-05T09:48:25.306Z,10.37
2017-12-05T09:50:55.098Z,11.63
2017-12-05T09:53:24.700Z,11.98
2017-12-05T09:55:56.140Z,16.00
2017-12-05T09:58:26.400Z,17.20
2017-12-05T10:00:58.730Z,19.97
2017-12-05T10:03:28.230Z,22.77
2017-12-05T10:05:58.064Z,21.83
2017-12-05T10:08:28.723Z,26.17
2017-12-05T10:10:59.041Z,25.40
2017-12-05T10:13:29.145Z,25.12
2017-12-05T10:15:59.676Z,26.12
2017-12-05T10:18:29.255Z,22.63
2017-12-05T10:20:59.449Z,21.33
2017-12-05T10:23:29.695Z,20.05
2017-12-05T10:26:00.951Z,19.03
2017-12-05T10:28:32.727Z,14.97
2017-12-05T10:31:04.335Z,11.93
2017-12-05T10:33:37.063Z,12.55
2017-12-05T10:36:07.056Z,15.37
2017-12-05T10:38:37.197Z,14.40
2017-12-05T10:41:08.592Z,15.70
2017-12-05T10:46:17.759Z,15.87
2017-12-05T10:48:48.308Z,15.80
2017-12-05T10:51:18.200Z,15.47
2017-12-05T10:53:48.315Z,15.37
2017-12-05T10:56:18.450Z,15.07
2017-12-05T10:58:55.631Z,14.80
2017-12-05T11:01:28.476Z,17.03
2017-12-05T11:04:00.452Z,16.93
2017-12-05T11:06:31.614Z,17.27
2017-12-05T11:09:01.400Z,18.17
2017-12-05T11:11:32.101Z,16.65
2017-12-05T11:14:03.429Z,17.50
2017-12-05T11:16:34.525Z,16.85
2017-12-05T11:19:05.124Z,17.55
2017-12-05T11:21:40.417Z,16.23
2017-12-05T11:24:10.367Z,17.10
2017-12-05T11:26:42.367Z,15.43
2017-12-05T11:29:12.180Z,16.17
2017-12-05T11:31:42.140Z,16.17
2017-12-05T11:34:14.741Z,16.60
2017-12-05T11:36:48.130Z,16.77
2017-12-05T11:39:18.316Z,15.83
2017-12-05T11:41:48.795Z,15.53
2017-12-05T11:44:20.460Z,15.70
2017-12-05T11:46:50.278Z,15.53
2017-12-05T11:49:20.744Z,13.70
2017-12-05T11:51:50.452Z,13.37
2017-12-05T11:54:28.602Z,13.43
2017-12-05T11:56:58.156Z,12.75
2017-12-05T11:59:28.337Z,12.57
2017-12-05T12:01:59.163Z,12.70
2017-12-05T12:04:29.416Z,11.38
2017-12-05T12:06:59.462Z,11.65
2017-12-05T12:09:29.357Z,12.20
2017-12-05T12:12:00.626Z,12.90
2017-12-05T12:14:30.332Z,12.63
2017-12-05T12:17:00.239Z,11.40
2017-12-05T12:19:34.241Z,11.80
2017-12-05T12:22:04.822Z,11.95
2017-12-05T12:24:35.051Z,11.77
2017-12-05T12:27:06.795Z,11.10
2017-12-05T12:29:36.723Z,10.60
2017-12-05T12:32:08.096Z,12.47
2017-12-05T12:34:40.318Z,11.87
2017-12-05T12:37:11.287Z,10.70
2017-12-05T22:33:01.770Z,8.63
2017-12-05T22:35:33.552Z,8.48
2017-12-05T22:38:04.698Z,8.55
2017-12-05T22:40:36.402Z,9.10
2017-12-05T22:43:07.633Z,8.75
2017-12-05T22:45:40.177Z,8.77
2017-12-05T22:48:13.422Z,7.90
2017-12-05T22:50:44.604Z,8.40
2017-12-05T22:53:16.743Z,7.70
2017-12-05T22:55:48.362Z,7.07
2017-12-05T22:58:20.458Z,8.27
2017-12-05T23:01:03.264Z,7.93
2017-12-05T23:03:36.428Z,7.93
2017-12-05T23:06:14.969Z,8.20
2017-12-05T23:08:53.004Z,7.60
2017-12-05T23:11:28.134Z,7.00
2017-12-05T23:14:00.649Z,7.80
2017-12-05T23:16:32.198Z,7.35
2017-12-05T23:19:07.625Z,7.01
2017-12-05T23:21:42.358Z,7.03
2017-12-05T23:24:17.763Z,6.75
2017-12-05T23:26:55.607Z,7.17
2017-12-05T23:29:35.552Z,6.90
2017-12-05T23:32:08.438Z,6.63
2017-12-05T23:34:45.920Z,7.57
2017-12-05T23:37:27.467Z,7.03
2017-12-05T23:40:00.420Z,6.93
2017-12-05T23:42:37.180Z,7.37
2017-12-05T23:45:13.647Z,6.77
